sensor_id;sensor_type;location;lat;lon;timestamp;P1;durP1;ratioP1;P2;durP2;ratioP2
2338;SDS011;1180;51.438;6.978;2023-05-14T00:00:14;13.00;;;11.70;;
2338;SDS011;1180;51.438;6.978;2023-05-14T00:02:40;12.20;;;10.87;;
2338;SDS011;1180;51.438;6.978;2023-05-14T00:05:06;11.63;;;10.50;;
2338;SDS011;1180;51.438;6.978;2023-05-14T00:07:32;10.50;;;9.50;;
2338;SDS011;1180;51.438;6.978;2023-05-14T00:09:58;10.93;;;9.90;;
2338;SDS011;1180;51.438;6.978;2023-05-14T00:12:27;11.17;;;10.17;;
2338;SDS011;1180;51.438;6.978;2023-05-14T00:14:54;10.30;;;9.30;;
2338;SDS011;1180;51.438;6.978;2023-05-14T00:17:19;10.10;;;9.10;;
2338;SDS011;1180;51.438;6.978;2023-05-14T00:19:45;10.50;;;9.50;;
2338;SDS011;1180;51.438;6.978;2023-05-14T00:22:10;10.43;;;9.33;;
2338;SDS011;1180;51.438;6.978;2023-05-14T00:24:36;11.47;;;10.27;;
2338;SDS011;1180;51.438;6.978;2023-05-14T00:27:02;9.83;;;8.93;;
2338;SDS011;1180;51.438;6.978;2023-05-14T00:29:28;15.33;;;9.50;;
2338;SDS011;1180;51.438;6.978;2023-05-14T00:31:54;11.37;;;10.20;;
2338;SDS011;1180;51.438;6.978;2023-05-14T00:34:20;10.40;;;9.40;;
2338;SDS011;1180;51.438;6.978;2023-05-14T00:36:45;10.93;;;9.80;;
2338;SDS011;1180;51.438;6.978;2023-05-14T00:39:12;11.10;;;10.10;;
2338;SDS011;1180;51.438;6.978;2023-05-14T00:41:37;12.03;;;10.87;;
2338;SDS011;1180;51.438;6.978;2023-05-14T00:44:03;12.17;;;10.87;;
2338;SDS011;1180;51.438;6.978;2023-05-14T00:46:29;11.50;;;10.30;;
2338;SDS011;1180;51.438;6.978;2023-05-14T00:48:56;11.83;;;10.73;;
2338;SDS011;1180;51.438;6.978;2023-05-14T00:51:22;12.13;;;10.83;;
2338;SDS011;1180;51.438;6.978;2023-05-14T00:53:49;11.13;;;9.60;;
2338;SDS011;1180;51.438;6.978;2023-05-14T00:56:15;12.40;;;11.30;;
2338;SDS011;1180;51.438;6.978;2023-05-14T00:58:41;12.03;;;10.70;;
2338;SDS011;1180;51.438;6.978;2023-05-14T01:01:06;12.97;;;10.23;;
2338;SDS011;1180;51.438;6.978;2023-05-14T01:03:33;12.23;;;11.00;;
2338;SDS011;1180;51.438;6.978;2023-05-14T01:06:08;13.83;;;10.37;;
2338;SDS011;1180;51.438;6.978;2023-05-14T01:11:12;12.07;;;10.33;;
2338;SDS011;1180;51.438;6.978;2023-05-14T01:16:15;17.07;;;11.80;;
2338;SDS011;1180;51.438;6.978;2023-05-14T01:18:43;10.80;;;9.70;;
2338;SDS011;1180;51.438;6.978;2023-05-14T01:21:24;11.00;;;9.90;;
2338;SDS011;1180;51.438;6.978;2023-05-14T01:23:49;11.00;;;9.80;;
2338;SDS011;1180;51.438;6.978;2023-05-14T01:26:15;10.70;;;9.60;;
2338;SDS011;1180;51.438;6.978;2023-05-14T01:28:40;10.27;;;9.27;;
2338;SDS011;1180;51.438;6.978;2023-05-14T01:31:15;13.53;;;10.77;;
2338;SDS011;1180;51.438;6.978;2023-05-14T01:33:47;10.47;;;9.37;;
2338;SDS011;1180;51.438;6.978;2023-05-14T01:36:13;9.63;;;8.73;;
2338;SDS011;1180;51.438;6.978;2023-05-14T01:38:39;9.87;;;8.97;;
2338;SDS011;1180;51.438;6.978;2023-05-14T01:41:09;11.30;;;10.20;;
2338;SDS011;1180;51.438;6.978;2023-05-14T01:43:36;11.50;;;10.40;;
2338;SDS011;1180;51.438;6.978;2023-05-14T01:46:02;13.23;;;9.80;;
2338;SDS011;1180;51.438;6.978;2023-05-14T01:48:28;10.93;;;9.93;;
2338;SDS011;1180;51.438;6.978;2023-05-14T01:50:54;10.67;;;9.63;;
2338;SDS011;1180;51.438;6.978;2023-05-14T01:53:20;11.00;;;9.90;;
2338;SDS011;1180;51.438;6.978;2023-05-14T01:55:45;12.73;;;10.10;;
2338;SDS011;1180;51.438;6.978;2023-05-14T01:58:11;11.07;;;9.60;;
2338;SDS011;1180;51.438;6.978;2023-05-14T02:00:36;13.90;;;10.17;;
2338;SDS011;1180;51.438;6.978;2023-05-14T02:03:02;10.63;;;9.73;;
2338;SDS011;1180;51.438;6.978;2023-05-14T02:05:27;11.60;;;10.50;;
2338;SDS011;1180;51.438;6.978;2023-05-14T02:07:53;10.43;;;9.43;;
2338;SDS011;1180;51.438;6.978;2023-05-14T02:10:18;11.87;;;10.77;;
2338;SDS011;1180;51.438;6.978;2023-05-14T02:12:44;12.57;;;10.50;;
2338;SDS011;1180;51.438;6.978;2023-05-14T02:15:09;11.43;;;10.37;;
2338;SDS011;1180;51.438;6.978;2023-05-14T02:17:35;11.93;;;10.80;;
2338;SDS011;1180;51.438;6.978;2023-05-14T02:20:01;11.40;;;10.33;;
2338;SDS011;1180;51.438;6.978;2023-05-14T02:22:26;11.10;;;10.00;;
2338;SDS011;1180;51.438;6.978;2023-05-14T02:24:52;11.63;;;10.53;;
2338;SDS011;1180;51.438;6.978;2023-05-14T02:27:17;11.30;;;10.20;;
2338;SDS011;1180;51.438;6.978;2023-05-14T02:29:43;13.00;;;11.47;;
2338;SDS011;1180;51.438;6.978;2023-05-14T02:32:09;11.03;;;9.87;;
2338;SDS011;1180;51.438;6.978;2023-05-14T02:34:34;11.43;;;10.10;;
2338;SDS011;1180;51.438;6.978;2023-05-14T02:37:00;12.03;;;10.93;;
2338;SDS011;1180;51.438;6.978;2023-05-14T02:39:25;11.63;;;10.50;;
2338;SDS011;1180;51.438;6.978;2023-05-14T02:41:51;11.53;;;10.30;;
2338;SDS011;1180;51.438;6.978;2023-05-14T02:44:16;11.90;;;10.87;;
2338;SDS011;1180;51.438;6.978;2023-05-14T02:46:42;11.43;;;10.33;;
2338;SDS011;1180;51.438;6.978;2023-05-14T02:49:08;11.80;;;10.70;;
2338;SDS011;1180;51.438;6.978;2023-05-14T02:51:33;10.83;;;9.83;;
2338;SDS011;1180;51.438;6.978;2023-05-14T02:53:59;11.97;;;10.87;;
2338;SDS011;1180;51.438;6.978;2023-05-14T02:56:25;11.27;;;9.80;;
2338;SDS011;1180;51.438;6.978;2023-05-14T02:58:50;11.60;;;10.50;;
2338;SDS011;1180;51.438;6.978;2023-05-14T03:01:16;11.30;;;10.30;;
2338;SDS011;1180;51.438;6.978;2023-05-14T03:03:42;11.40;;;10.30;;
2338;SDS011;1180;51.438;6.978;2023-05-14T03:06:08;13.23;;;12.13;;
2338;SDS011;1180;51.438;6.978;2023-05-14T03:08:33;13.10;;;11.73;;
2338;SDS011;1180;51.438;6.978;2023-05-14T03:10:59;14.63;;;12.60;;
2338;SDS011;1180;51.438;6.978;2023-05-14T03:13:25;14.53;;;13.00;;
2338;SDS011;1180;51.438;6.978;2023-05-14T03:15:50;14.50;;;13.00;;
2338;SDS011;1180;51.438;6.978;2023-05-14T03:18:18;13.90;;;12.57;;
2338;SDS011;1180;51.438;6.978;2023-05-14T03:20:44;14.97;;;13.30;;
2338;SDS011;1180;51.438;6.978;2023-05-14T03:23:10;13.97;;;12.63;;
2338;SDS011;1180;51.438;6.978;2023-05-14T03:25:36;14.33;;;13.03;;
2338;SDS011;1180;51.438;6.978;2023-05-14T03:28:02;15.53;;;14.00;;
2338;SDS011;1180;51.438;6.978;2023-05-14T03:30:28;16.50;;;12.90;;
2338;SDS011;1180;51.438;6.978;2023-05-14T03:32:53;15.00;;;13.40;;
2338;SDS011;1180;51.438;6.978;2023-05-14T03:35:19;14.40;;;13.10;;
2338;SDS011;1180;51.438;6.978;2023-05-14T03:37:45;14.43;;;12.87;;
2338;SDS011;1180;51.438;6.978;2023-05-14T03:40:10;14.83;;;13.33;;
2338;SDS011;1180;51.438;6.978;2023-05-14T03:42:36;16.00;;;12.43;;
2338;SDS011;1180;51.438;6.978;2023-05-14T03:45:02;12.77;;;11.57;;
2338;SDS011;1180;51.438;6.978;2023-05-14T03:47:28;13.60;;;11.03;;
2338;SDS011;1180;51.438;6.978;2023-05-14T03:49:53;11.10;;;9.90;;
2338;SDS011;1180;51.438;6.978;2023-05-14T03:52:20;10.03;;;9.13;;
2338;SDS011;1180;51.438;6.978;2023-05-14T03:54:46;10.33;;;9.13;;
2338;SDS011;1180;51.438;6.978;2023-05-14T03:57:11;11.27;;;10.10;;
2338;SDS011;1180;51.438;6.978;2023-05-14T03:59:36;11.50;;;10.40;;
2338;SDS011;1180;51.438;6.978;2023-05-14T04:02:02;14.10;;;11.23;;
2338;SDS011;1180;51.438;6.978;2023-05-14T04:04:28;10.00;;;9.00;;
2338;SDS011;1180;51.438;6.978;2023-05-14T04:06:53;12.63;;;11.33;;
2338;SDS011;1180;51.438;6.978;2023-05-14T04:09:19;13.07;;;10.00;;
2338;SDS011;1180;51.438;6.978;2023-05-14T04:11:44;12.40;;;10.50;;
2338;SDS011;1180;51.438;6.978;2023-05-14T04:14:10;10.17;;;9.17;;
2338;SDS011;1180;51.438;6.978;2023-05-14T04:16:36;10.87;;;9.87;;
2338;SDS011;1180;51.438;6.978;2023-05-14T04:19:02;12.03;;;10.83;;
2338;SDS011;1180;51.438;6.978;2023-05-14T04:21:31;11.97;;;10.83;;
2338;SDS011;1180;51.438;6.978;2023-05-14T04:23:56;13.70;;;12.30;;
2338;SDS011;1180;51.438;6.978;2023-05-14T04:26:22;12.43;;;11.23;;
2338;SDS011;1180;51.438;6.978;2023-05-14T04:28:48;11.17;;;10.07;;
2338;SDS011;1180;51.438;6.978;2023-05-14T04:31:14;12.87;;;11.57;;
2338;SDS011;1180;51.438;6.978;2023-05-14T04:33:40;12.10;;;11.00;;
2338;SDS011;1180;51.438;6.978;2023-05-14T04:36:06;14.23;;;12.73;;
2338;SDS011;1180;51.438;6.978;2023-05-14T04:38:32;12.40;;;11.20;;
2338;SDS011;1180;51.438;6.978;2023-05-14T04:40:58;12.43;;;10.77;;
2338;SDS011;1180;51.438;6.978;2023-05-14T04:43:23;13.20;;;11.80;;
2338;SDS011;1180;51.438;6.978;2023-05-14T04:45:49;12.47;;;11.27;;
2338;SDS011;1180;51.438;6.978;2023-05-14T04:48:16;11.73;;;10.70;;
2338;SDS011;1180;51.438;6.978;2023-05-14T04:50:42;12.17;;;10.90;;
2338;SDS011;1180;51.438;6.978;2023-05-14T04:53:08;12.30;;;11.10;;
2338;SDS011;1180;51.438;6.978;2023-05-14T04:55:35;12.27;;;11.17;;
2338;SDS011;1180;51.438;6.978;2023-05-14T04:58:00;12.23;;;10.97;;
2338;SDS011;1180;51.438;6.978;2023-05-14T05:00:26;12.10;;;10.10;;
2338;SDS011;1180;51.438;6.978;2023-05-14T05:02:52;12.10;;;10.90;;
2338;SDS011;1180;51.438;6.978;2023-05-14T05:05:18;11.40;;;10.40;;
2338;SDS011;1180;51.438;6.978;2023-05-14T05:07:43;12.47;;;10.87;;
2338;SDS011;1180;51.438;6.978;2023-05-14T05:10:09;12.80;;;11.50;;
2338;SDS011;1180;51.438;6.978;2023-05-14T05:12:34;12.90;;;9.87;;
2338;SDS011;1180;51.438;6.978;2023-05-14T05:15:00;12.23;;;11.03;;
2338;SDS011;1180;51.438;6.978;2023-05-14T05:17:26;13.30;;;11.10;;
2338;SDS011;1180;51.438;6.978;2023-05-14T05:19:53;15.93;;;11.40;;
2338;SDS011;1180;51.438;6.978;2023-05-14T05:22:19;10.57;;;9.53;;
2338;SDS011;1180;51.438;6.978;2023-05-14T05:24:44;11.97;;;10.90;;
2338;SDS011;1180;51.438;6.978;2023-05-14T05:27:10;12.00;;;10.90;;
2338;SDS011;1180;51.438;6.978;2023-05-14T05:29:35;12.30;;;11.10;;
2338;SDS011;1180;51.438;6.978;2023-05-14T05:32:01;12.60;;;11.40;;
2338;SDS011;1180;51.438;6.978;2023-05-14T05:34:27;13.10;;;11.80;;
2338;SDS011;1180;51.438;6.978;2023-05-14T05:36:53;11.73;;;10.63;;
2338;SDS011;1180;51.438;6.978;2023-05-14T05:39:18;12.93;;;11.63;;
2338;SDS011;1180;51.438;6.978;2023-05-14T05:41:44;12.97;;;11.63;;
2338;SDS011;1180;51.438;6.978;2023-05-14T05:44:10;12.63;;;11.00;;
2338;SDS011;1180;51.438;6.978;2023-05-14T05:46:35;12.27;;;11.00;;
2338;SDS011;1180;51.438;6.978;2023-05-14T05:49:01;12.93;;;11.53;;
2338;SDS011;1180;51.438;6.978;2023-05-14T05:51:26;15.40;;;12.57;;
2338;SDS011;1180;51.438;6.978;2023-05-14T05:53:52;13.67;;;12.40;;
2338;SDS011;1180;51.438;6.978;2023-05-14T05:56:17;12.43;;;11.23;;
2338;SDS011;1180;51.438;6.978;2023-05-14T05:58:43;14.20;;;13.00;;
2338;SDS011;1180;51.438;6.978;2023-05-14T06:01:09;13.50;;;12.10;;
2338;SDS011;1180;51.438;6.978;2023-05-14T06:03:34;11.50;;;10.47;;
2338;SDS011;1180;51.438;6.978;2023-05-14T06:06:00;12.73;;;11.63;;
2338;SDS011;1180;51.438;6.978;2023-05-14T06:08:25;13.60;;;11.53;;
2338;SDS011;1180;51.438;6.978;2023-05-14T06:10:51;12.63;;;11.33;;
2338;SDS011;1180;51.438;6.978;2023-05-14T06:13:16;10.67;;;8.87;;
2338;SDS011;1180;51.438;6.978;2023-05-14T06:15:42;11.07;;;9.60;;
2338;SDS011;1180;51.438;6.978;2023-05-14T06:18:07;8.27;;;7.37;;
2338;SDS011;1180;51.438;6.978;2023-05-14T06:20:33;8.40;;;7.70;;
2338;SDS011;1180;51.438;6.978;2023-05-14T06:22:58;10.40;;;8.93;;
2338;SDS011;1180;51.438;6.978;2023-05-14T06:25:24;11.20;;;10.10;;
2338;SDS011;1180;51.438;6.978;2023-05-14T06:27:49;9.03;;;7.17;;
2338;SDS011;1180;51.438;6.978;2023-05-14T06:30:15;7.77;;;7.10;;
2338;SDS011;1180;51.438;6.978;2023-05-14T06:32:41;5.90;;;5.30;;
2338;SDS011;1180;51.438;6.978;2023-05-14T06:35:06;5.37;;;4.87;;
2338;SDS011;1180;51.438;6.978;2023-05-14T06:37:32;6.30;;;5.70;;
2338;SDS011;1180;51.438;6.978;2023-05-14T06:39:59;6.33;;;5.20;;
2338;SDS011;1180;51.438;6.978;2023-05-14T06:42:25;5.03;;;4.43;;
2338;SDS011;1180;51.438;6.978;2023-05-14T06:44:51;4.93;;;4.53;;
2338;SDS011;1180;51.438;6.978;2023-05-14T06:47:16;5.00;;;4.50;;
2338;SDS011;1180;51.438;6.978;2023-05-14T06:49:42;7.70;;;5.00;;
2338;SDS011;1180;51.438;6.978;2023-05-14T06:52:07;5.50;;;4.60;;
2338;SDS011;1180;51.438;6.978;2023-05-14T06:54:33;7.20;;;5.27;;
2338;SDS011;1180;51.438;6.978;2023-05-14T06:56:59;4.10;;;3.80;;
2338;SDS011;1180;51.438;6.978;2023-05-14T06:59:25;4.40;;;4.03;;
2338;SDS011;1180;51.438;6.978;2023-05-14T07:01:50;5.30;;;4.67;;
2338;SDS011;1180;51.438;6.978;2023-05-14T07:04:16;5.13;;;4.00;;
2338;SDS011;1180;51.438;6.978;2023-05-14T07:06:41;4.70;;;4.30;;
2338;SDS011;1180;51.438;6.978;2023-05-14T07:09:07;4.00;;;3.70;;
2338;SDS011;1180;51.438;6.978;2023-05-14T07:11:33;6.37;;;5.77;;
2338;SDS011;1180;51.438;6.978;2023-05-14T07:13:58;7.70;;;5.07;;
2338;SDS011;1180;51.438;6.978;2023-05-14T07:16:24;5.60;;;5.10;;
2338;SDS011;1180;51.438;6.978;2023-05-14T07:18:50;5.97;;;4.23;;
2338;SDS011;1180;51.438;6.978;2023-05-14T07:21:16;4.07;;;3.70;;
2338;SDS011;1180;51.438;6.978;2023-05-14T07:23:42;6.93;;;3.80;;
2338;SDS011;1180;51.438;6.978;2023-05-14T07:26:07;4.00;;;3.70;;
2338;SDS011;1180;51.438;6.978;2023-05-14T07:28:33;4.63;;;4.20;;
2338;SDS011;1180;51.438;6.978;2023-05-14T07:30:59;4.93;;;4.47;;
2338;SDS011;1180;51.438;6.978;2023-05-14T07:33:25;5.37;;;4.87;;
2338;SDS011;1180;51.438;6.978;2023-05-14T07:35:50;5.20;;;4.80;;
2338;SDS011;1180;51.438;6.978;2023-05-14T07:38:19;4.77;;;4.37;;
2338;SDS011;1180;51.438;6.978;2023-05-14T07:40:45;4.97;;;4.50;;
2338;SDS011;1180;51.438;6.978;2023-05-14T07:43:11;5.33;;;4.77;;
2338;SDS011;1180;51.438;6.978;2023-05-14T07:45:36;4.00;;;3.70;;
2338;SDS011;1180;51.438;6.978;2023-05-14T07:48:05;5.20;;;4.47;;
2338;SDS011;1180;51.438;6.978;2023-05-14T07:50:30;5.80;;;4.30;;
2338;SDS011;1180;51.438;6.978;2023-05-14T07:52:56;4.23;;;3.83;;
2338;SDS011;1180;51.438;6.978;2023-05-14T07:55:22;5.70;;;3.70;;
2338;SDS011;1180;51.438;6.978;2023-05-14T07:57:47;3.90;;;3.60;;
2338;SDS011;1180;51.438;6.978;2023-05-14T08:00:13;4.50;;;4.20;;
2338;SDS011;1180;51.438;6.978;2023-05-14T08:02:40;5.57;;;4.27;;
2338;SDS011;1180;51.438;6.978;2023-05-14T08:05:06;5.17;;;4.73;;
2338;SDS011;1180;51.438;6.978;2023-05-14T08:07:33;6.37;;;3.90;;
2338;SDS011;1180;51.438;6.978;2023-05-14T08:09:58;5.60;;;4.23;;
2338;SDS011;1180;51.438;6.978;2023-05-14T08:12:24;6.57;;;4.47;;
2338;SDS011;1180;51.438;6.978;2023-05-14T08:14:50;4.47;;;4.07;;
2338;SDS011;1180;51.438;6.978;2023-05-14T08:17:16;4.47;;;3.90;;
2338;SDS011;1180;51.438;6.978;2023-05-14T08:19:41;5.43;;;3.53;;
2338;SDS011;1180;51.438;6.978;2023-05-14T08:22:07;5.37;;;4.90;;
2338;SDS011;1180;51.438;6.978;2023-05-14T08:24:33;5.13;;;4.60;;
2338;SDS011;1180;51.438;6.978;2023-05-14T08:26:58;5.50;;;3.90;;
2338;SDS011;1180;51.438;6.978;2023-05-14T08:29:24;8.50;;;4.37;;
2338;SDS011;1180;51.438;6.978;2023-05-14T08:31:50;4.67;;;4.27;;
2338;SDS011;1180;51.438;6.978;2023-05-14T08:34:15;4.80;;;4.50;;
2338;SDS011;1180;51.438;6.978;2023-05-14T08:36:41;4.57;;;4.28;;
2338;SDS011;1180;51.438;6.978;2023-05-14T08:39:07;5.90;;;3.70;;
2338;SDS011;1180;51.438;6.978;2023-05-14T08:41:32;3.93;;;3.63;;
2338;SDS011;1180;51.438;6.978;2023-05-14T08:44:17;6.73;;;4.90;;
2338;SDS011;1180;51.438;6.978;2023-05-14T08:46:44;5.23;;;4.83;;
2338;SDS011;1180;51.438;6.978;2023-05-14T08:49:18;6.53;;;4.43;;
2338;SDS011;1180;51.438;6.978;2023-05-14T08:51:53;4.60;;;3.60;;
2338;SDS011;1180;51.438;6.978;2023-05-14T08:54:20;4.90;;;4.40;;
2338;SDS011;1180;51.438;6.978;2023-05-14T08:56:48;5.13;;;4.30;;
2338;SDS011;1180;51.438;6.978;2023-05-14T08:59:15;4.90;;;3.97;;
2338;SDS011;1180;51.438;6.978;2023-05-14T09:01:45;4.70;;;4.00;;
2338;SDS011;1180;51.438;6.978;2023-05-14T09:04:12;4.40;;;4.10;;
2338;SDS011;1180;51.438;6.978;2023-05-14T09:06:50;3.50;;;3.20;;
2338;SDS011;1180;51.438;6.978;2023-05-14T09:09:16;5.20;;;3.73;;
2338;SDS011;1180;51.438;6.978;2023-05-14T09:11:45;7.70;;;3.90;;
2338;SDS011;1180;51.438;6.978;2023-05-14T09:14:12;3.80;;;3.40;;
2338;SDS011;1180;51.438;6.978;2023-05-14T09:16:37;3.60;;;3.30;;
2338;SDS011;1180;51.438;6.978;2023-05-14T09:19:04;4.97;;;4.47;;
2338;SDS011;1180;51.438;6.978;2023-05-14T09:21:30;6.30;;;3.90;;
2338;SDS011;1180;51.438;6.978;2023-05-14T09:23:56;3.37;;;3.07;;
2338;SDS011;1180;51.438;6.978;2023-05-14T09:26:23;3.20;;;2.90;;
2338;SDS011;1180;51.438;6.978;2023-05-14T09:28:53;4.00;;;3.60;;
2338;SDS011;1180;51.438;6.978;2023-05-14T09:31:26;3.10;;;2.80;;
2338;SDS011;1180;51.438;6.978;2023-05-14T09:33:53;3.40;;;2.60;;
2338;SDS011;1180;51.438;6.978;2023-05-14T09:36:19;3.20;;;3.00;;
2338;SDS011;1180;51.438;6.978;2023-05-14T09:38:45;4.53;;;3.57;;
2338;SDS011;1180;51.438;6.978;2023-05-14T09:41:10;3.83;;;3.53;;
2338;SDS011;1180;51.438;6.978;2023-05-14T09:43:36;3.40;;;3.10;;
2338;SDS011;1180;51.438;6.978;2023-05-14T09:46:02;5.00;;;2.97;;
2338;SDS011;1180;51.438;6.978;2023-05-14T09:48:28;3.63;;;3.33;;
2338;SDS011;1180;51.438;6.978;2023-05-14T09:50:54;6.67;;;3.00;;
2338;SDS011;1180;51.438;6.978;2023-05-14T09:53:19;3.30;;;2.90;;
2338;SDS011;1180;51.438;6.978;2023-05-14T09:55:45;7.27;;;3.03;;
2338;SDS011;1180;51.438;6.978;2023-05-14T09:58:11;7.60;;;3.40;;
2338;SDS011;1180;51.438;6.978;2023-05-14T10:00:42;3.43;;;3.13;;
2338;SDS011;1180;51.438;6.978;2023-05-14T10:03:10;2.87;;;2.67;;
2338;SDS011;1180;51.438;6.978;2023-05-14T10:05:39;3.00;;;2.80;;
2338;SDS011;1180;51.438;6.978;2023-05-14T10:08:26;3.50;;;3.03;;
2338;SDS011;1180;51.438;6.978;2023-05-14T10:10:55;3.47;;;3.17;;
2338;SDS011;1180;51.438;6.978;2023-05-14T10:13:24;3.87;;;3.17;;
2338;SDS011;1180;51.438;6.978;2023-05-14T10:18:31;3.40;;;3.10;;
2338;SDS011;1180;51.438;6.978;2023-05-14T10:21:03;5.53;;;3.17;;
2338;SDS011;1180;51.438;6.978;2023-05-14T10:23:30;3.13;;;2.90;;
2338;SDS011;1180;51.438;6.978;2023-05-14T10:25:59;3.03;;;2.83;;
2338;SDS011;1180;51.438;6.978;2023-05-14T10:28:26;3.87;;;3.37;;
2338;SDS011;1180;51.438;6.978;2023-05-14T10:30:53;2.37;;;2.27;;
2338;SDS011;1180;51.438;6.978;2023-05-14T10:33:19;3.33;;;2.97;;
2338;SDS011;1180;51.438;6.978;2023-05-14T10:35:55;4.33;;;3.27;;
2338;SDS011;1180;51.438;6.978;2023-05-14T10:38:27;2.90;;;2.50;;
2338;SDS011;1180;51.438;6.978;2023-05-14T10:43:28;2.90;;;2.60;;
2338;SDS011;1180;51.438;6.978;2023-05-14T10:45:55;3.20;;;2.60;;
2338;SDS011;1180;51.438;6.978;2023-05-14T10:48:22;4.33;;;3.03;;
2338;SDS011;1180;51.438;6.978;2023-05-14T10:50:51;5.03;;;2.90;;
2338;SDS011;1180;51.438;6.978;2023-05-14T10:53:18;3.60;;;3.30;;
2338;SDS011;1180;51.438;6.978;2023-05-14T10:55:44;4.07;;;3.67;;
2338;SDS011;1180;51.438;6.978;2023-05-14T10:58:10;3.63;;;2.93;;
2338;SDS011;1180;51.438;6.978;2023-05-14T11:00:36;3.37;;;3.10;;
2338;SDS011;1180;51.438;6.978;2023-05-14T11:03:03;8.53;;;3.17;;
2338;SDS011;1180;51.438;6.978;2023-05-14T11:05:30;3.47;;;2.90;;
2338;SDS011;1180;51.438;6.978;2023-05-14T11:07:57;3.50;;;3.20;;
2338;SDS011;1180;51.438;6.978;2023-05-14T11:10:26;3.30;;;3.10;;
2338;SDS011;1180;51.438;6.978;2023-05-14T11:12:54;4.10;;;3.00;;
2338;SDS011;1180;51.438;6.978;2023-05-14T11:15:22;3.37;;;3.07;;
2338;SDS011;1180;51.438;6.978;2023-05-14T11:17:50;6.77;;;3.67;;
2338;SDS011;1180;51.438;6.978;2023-05-14T11:20:17;3.10;;;2.90;;
2338;SDS011;1180;51.438;6.978;2023-05-14T11:22:44;3.60;;;3.30;;
2338;SDS011;1180;51.438;6.978;2023-05-14T11:25:11;3.33;;;3.10;;
2338;SDS011;1180;51.438;6.978;2023-05-14T11:27:41;5.33;;;2.83;;
2338;SDS011;1180;51.438;6.978;2023-05-14T11:30:11;5.27;;;2.90;;
2338;SDS011;1180;51.438;6.978;2023-05-14T11:32:38;4.00;;;3.40;;
2338;SDS011;1180;51.438;6.978;2023-05-14T11:35:05;3.60;;;3.30;;
2338;SDS011;1180;51.438;6.978;2023-05-14T11:37:31;3.37;;;3.17;;
2338;SDS011;1180;51.438;6.978;2023-05-14T11:39:58;4.50;;;2.83;;
2338;SDS011;1180;51.438;6.978;2023-05-14T11:42:24;3.00;;;2.80;;
2338;SDS011;1180;51.438;6.978;2023-05-14T11:44:51;2.63;;;2.43;;
2338;SDS011;1180;51.438;6.978;2023-05-14T11:47:19;5.50;;;3.00;;
2338;SDS011;1180;51.438;6.978;2023-05-14T11:49:45;3.77;;;2.90;;
2338;SDS011;1180;51.438;6.978;2023-05-14T11:52:12;2.63;;;2.43;;
2338;SDS011;1180;51.438;6.978;2023-05-14T11:54:39;3.73;;;2.50;;
2338;SDS011;1180;51.438;6.978;2023-05-14T11:57:09;3.10;;;2.70;;
2338;SDS011;1180;51.438;6.978;2023-05-14T11:59:36;3.33;;;3.03;;
2338;SDS011;1180;51.438;6.978;2023-05-14T12:02:01;3.83;;;2.93;;
2338;SDS011;1180;51.438;6.978;2023-05-14T12:04:28;13.30;;;3.20;;
2338;SDS011;1180;51.438;6.978;2023-05-14T12:06:56;2.87;;;2.67;;
2338;SDS011;1180;51.438;6.978;2023-05-14T12:09:22;4.23;;;2.67;;
2338;SDS011;1180;51.438;6.978;2023-05-14T12:11:49;4.03;;;3.30;;
2338;SDS011;1180;51.438;6.978;2023-05-14T12:14:16;2.87;;;2.67;;
2338;SDS011;1180;51.438;6.978;2023-05-14T12:16:43;4.83;;;3.67;;
2338;SDS011;1180;51.438;6.978;2023-05-14T12:19:10;3.57;;;2.77;;
2338;SDS011;1180;51.438;6.978;2023-05-14T12:21:38;4.97;;;2.73;;
2338;SDS011;1180;51.438;6.978;2023-05-14T12:24:07;3.07;;;2.83;;
2338;SDS011;1180;51.438;6.978;2023-05-14T12:26:36;5.43;;;3.70;;
2338;SDS011;1180;51.438;6.978;2023-05-14T12:29:03;3.43;;;2.60;;
2338;SDS011;1180;51.438;6.978;2023-05-14T12:31:31;3.33;;;2.40;;
2338;SDS011;1180;51.438;6.978;2023-05-14T12:33:58;2.33;;;2.10;;
2338;SDS011;1180;51.438;6.978;2023-05-14T12:36:23;3.13;;;2.50;;
2338;SDS011;1180;51.438;6.978;2023-05-14T12:38:56;3.20;;;2.90;;
2338;SDS011;1180;51.438;6.978;2023-05-14T12:41:27;2.80;;;2.20;;
2338;SDS011;1180;51.438;6.978;2023-05-14T12:43:56;5.40;;;3.00;;
2338;SDS011;1180;51.438;6.978;2023-05-14T12:46:22;3.03;;;2.67;;
2338;SDS011;1180;51.438;6.978;2023-05-14T12:48:49;4.03;;;3.07;;
2338;SDS011;1180;51.438;6.978;2023-05-14T12:51:14;3.60;;;3.03;;
2338;SDS011;1180;51.438;6.978;2023-05-14T12:53:40;2.63;;;2.43;;
2338;SDS011;1180;51.438;6.978;2023-05-14T12:56:05;3.10;;;2.90;;
2338;SDS011;1180;51.438;6.978;2023-05-14T12:58:31;2.70;;;2.50;;
2338;SDS011;1180;51.438;6.978;2023-05-14T13:00:57;3.37;;;2.40;;
2338;SDS011;1180;51.438;6.978;2023-05-14T13:03:23;3.13;;;2.93;;
2338;SDS011;1180;51.438;6.978;2023-05-14T13:05:50;3.47;;;3.17;;
2338;SDS011;1180;51.438;6.978;2023-05-14T13:08:16;5.30;;;3.20;;
2338;SDS011;1180;51.438;6.978;2023-05-14T13:10:44;4.33;;;2.70;;
2338;SDS011;1180;51.438;6.978;2023-05-14T13:13:10;3.77;;;3.47;;
2338;SDS011;1180;51.438;6.978;2023-05-14T13:15:36;4.60;;;2.67;;
2338;SDS011;1180;51.438;6.978;2023-05-14T13:18:02;3.00;;;2.70;;
2338;SDS011;1180;51.438;6.978;2023-05-14T13:20:28;5.23;;;2.80;;
2338;SDS011;1180;51.438;6.978;2023-05-14T13:22:55;3.43;;;3.23;;
2338;SDS011;1180;51.438;6.978;2023-05-14T13:25:22;4.43;;;2.80;;
2338;SDS011;1180;51.438;6.978;2023-05-14T13:27:48;7.20;;;3.00;;
2338;SDS011;1180;51.438;6.978;2023-05-14T13:30:19;3.07;;;2.87;;
2338;SDS011;1180;51.438;6.978;2023-05-14T13:32:45;3.13;;;2.33;;
2338;SDS011;1180;51.438;6.978;2023-05-14T13:35:11;2.80;;;2.60;;
2338;SDS011;1180;51.438;6.978;2023-05-14T13:37:36;4.03;;;2.87;;
2338;SDS011;1180;51.438;6.978;2023-05-14T13:40:02;2.57;;;2.37;;
2338;SDS011;1180;51.438;6.978;2023-05-14T13:42:31;3.30;;;2.40;;
2338;SDS011;1180;51.438;6.978;2023-05-14T13:44:57;2.60;;;2.40;;
2338;SDS011;1180;51.438;6.978;2023-05-14T13:47:23;3.10;;;2.80;;
2338;SDS011;1180;51.438;6.978;2023-05-14T13:49:50;2.50;;;2.40;;
2338;SDS011;1180;51.438;6.978;2023-05-14T13:52:19;3.50;;;2.73;;
2338;SDS011;1180;51.438;6.978;2023-05-14T13:54:45;3.13;;;2.80;;
2338;SDS011;1180;51.438;6.978;2023-05-14T13:57:11;3.00;;;2.67;;
2338;SDS011;1180;51.438;6.978;2023-05-14T13:59:36;2.93;;;2.73;;
2338;SDS011;1180;51.438;6.978;2023-05-14T14:02:02;3.93;;;3.00;;
2338;SDS011;1180;51.438;6.978;2023-05-14T14:04:27;3.00;;;2.70;;
2338;SDS011;1180;51.438;6.978;2023-05-14T14:06:54;6.20;;;2.77;;
2338;SDS011;1180;51.438;6.978;2023-05-14T14:09:20;2.80;;;2.60;;
2338;SDS011;1180;51.438;6.978;2023-05-14T14:11:46;3.03;;;2.83;;
2338;SDS011;1180;51.438;6.978;2023-05-14T14:14:12;3.90;;;3.50;;
2338;SDS011;1180;51.438;6.978;2023-05-14T14:16:37;3.73;;;2.70;;
2338;SDS011;1180;51.438;6.978;2023-05-14T14:19:03;4.13;;;2.90;;
2338;SDS011;1180;51.438;6.978;2023-05-14T14:21:28;3.23;;;2.93;;
2338;SDS011;1180;51.438;6.978;2023-05-14T14:23:54;2.70;;;2.50;;
2338;SDS011;1180;51.438;6.978;2023-05-14T14:26:19;2.97;;;2.67;;
2338;SDS011;1180;51.438;6.978;2023-05-14T14:28:45;2.63;;;2.43;;
2338;SDS011;1180;51.438;6.978;2023-05-14T14:31:10;3.83;;;3.23;;
2338;SDS011;1180;51.438;6.978;2023-05-14T14:33:36;2.80;;;2.60;;
2338;SDS011;1180;51.438;6.978;2023-05-14T14:36:02;2.40;;;2.20;;
2338;SDS011;1180;51.438;6.978;2023-05-14T14:38:28;2.70;;;2.50;;
2338;SDS011;1180;51.438;6.978;2023-05-14T14:40:54;3.30;;;2.73;;
2338;SDS011;1180;51.438;6.978;2023-05-14T14:43:19;2.70;;;2.17;;
2338;SDS011;1180;51.438;6.978;2023-05-14T14:45:45;2.70;;;2.50;;
2338;SDS011;1180;51.438;6.978;2023-05-14T14:50:51;3.60;;;2.83;;
2338;SDS011;1180;51.438;6.978;2023-05-14T14:53:17;3.00;;;2.50;;
2338;SDS011;1180;51.438;6.978;2023-05-14T14:55:44;2.73;;;2.53;;
2338;SDS011;1180;51.438;6.978;2023-05-14T14:58:09;3.13;;;2.40;;
2338;SDS011;1180;51.438;6.978;2023-05-14T15:00:35;2.60;;;2.37;;
2338;SDS011;1180;51.438;6.978;2023-05-14T15:03:00;3.73;;;2.33;;
2338;SDS011;1180;51.438;6.978;2023-05-14T15:05:26;2.63;;;2.07;;
2338;SDS011;1180;51.438;6.978;2023-05-14T15:07:51;2.33;;;2.13;;
2338;SDS011;1180;51.438;6.978;2023-05-14T15:10:17;4.87;;;2.70;;
2338;SDS011;1180;51.438;6.978;2023-05-14T15:12:46;2.20;;;2.00;;